createdAt,value
2023-03-13T09:01:31.313Z,82.87
2023-03-13T09:02:35.108Z,81.85
2023-03-13T09:03:39.243Z,82.44
2023-03-13T09:04:42.056Z,82.98
2023-03-13T09:05:55.169Z,82.85
2023-03-13T09:06:59.387Z,83.12
2023-03-13T09:08:02.576Z,82.27
2023-03-13T09:09:07.055Z,80.76
2023-03-13T09:10:10.486Z,81.38
2023-03-13T09:11:22.268Z,81.52
2023-03-13T09:12:31.073Z,81.46
2023-03-13T09:13:37.605Z,81.34
2023-03-13T09:14:40.472Z,80.25
2023-03-13T09:15:43.216Z,80.76
2023-03-13T09:16:48.233Z,80.49
2023-03-13T09:17:51.167Z,81.02
2023-03-13T09:18:55.606Z,80.20
2023-03-13T09:20:00.956Z,79.03
2023-03-13T09:21:08.341Z,78.95
2023-03-13T09:22:11.060Z,78.78
2023-03-13T09:23:13.795Z,78.20
2023-03-13T09:24:17.757Z,78.71
2023-03-13T09:25:20.760Z,77.42
2023-03-13T09:26:23.934Z,78.19
2023-03-13T09:27:28.337Z,78.71
2023-03-13T09:28:32.551Z,77.89
2023-03-13T09:29:40.080Z,77.38
2023-03-13T09:30:43.474Z,77.42
2023-03-13T09:31:46.277Z,77.39
2023-03-13T09:32:49.132Z,76.54
2023-03-13T09:33:52.081Z,77.71
2023-03-13T09:34:55.837Z,78.29
2023-03-13T09:35:58.597Z,77.96
2023-03-13T09:37:02.066Z,78.26
2023-03-13T09:38:08.546Z,78.84
2023-03-13T09:39:11.610Z,79.00
2023-03-13T09:40:18.729Z,78.23
2023-03-13T09:41:26.440Z,78.12
2023-03-13T09:42:48.460Z,77.41
2023-03-13T09:43:54.898Z,76.68
2023-03-13T09:45:13.651Z,76.27
2023-03-13T09:46:49.752Z,76.78
2023-03-13T09:48:04.377Z,75.84
2023-03-13T09:49:27.500Z,75.36
2023-03-13T09:50:34.714Z,76.70
2023-03-13T09:51:42.980Z,76.93
2023-03-13T09:52:49.990Z,76.92
2023-03-13T09:54:01.312Z,76.81
2023-03-13T09:55:17.169Z,76.25
2023-03-13T09:56:25.261Z,73.37
2023-03-13T09:57:44.569Z,73.69
2023-03-13T09:58:59.265Z,73.23
2023-03-13T10:00:12.803Z,73.96
2023-03-13T10:01:22.873Z,74.08
2023-03-13T10:02:30.511Z,73.32
2023-03-13T10:03:40.479Z,72.81
2023-03-13T10:04:50.141Z,73.15
2023-03-13T10:05:59.564Z,73.40
2023-03-13T10:07:03.814Z,73.57
2023-03-13T10:08:15.645Z,74.46
2023-03-13T10:09:30.327Z,74.56
2023-03-13T10:10:42.346Z,74.65
2023-03-13T10:11:52.997Z,74.30
2023-03-13T10:13:09.394Z,74.29
2023-03-13T10:14:20.280Z,74.13
2023-03-13T10:16:01.296Z,74.51
2023-03-13T10:17:20.594Z,74.32
2023-03-13T10:18:26.081Z,73.65
2023-03-13T10:19:37.874Z,73.87
2023-03-13T10:20:42.466Z,73.45
2023-03-13T10:21:58.260Z,73.47
2023-03-13T10:23:05.582Z,73.83
2023-03-13T10:24:17.870Z,73.29
2023-03-13T10:25:34.089Z,73.91
2023-03-13T10:26:38.175Z,74.46
2023-03-13T10:27:50.720Z,74.69
2023-03-13T10:29:11.837Z,73.66
2023-03-13T10:30:26.414Z,73.14
2023-03-13T10:31:37.651Z,72.55
2023-03-13T10:32:40.384Z,73.35
2023-03-13T10:33:43.842Z,74.65
2023-03-13T10:34:54.641Z,73.94
2023-03-13T10:36:12.898Z,73.24
2023-03-13T10:37:19.732Z,72.15
2023-03-13T10:38:25.302Z,73.58
2023-03-13T10:39:30.067Z,74.38
2023-03-13T10:40:33.358Z,73.42
2023-03-13T10:41:38.789Z,73.33
2023-03-13T10:42:46.698Z,72.42
2023-03-13T10:43:53.454Z,73.02
2023-03-13T10:45:02.291Z,72.31
2023-03-13T10:46:06.720Z,73.48
2023-03-13T10:47:14.639Z,73.31
2023-03-13T10:48:24.711Z,73.68
2023-03-13T10:49:29.532Z,72.94
2023-03-13T10:50:36.038Z,73.19
2023-03-13T10:51:41.138Z,72.72
2023-03-13T10:52:47.978Z,72.39
2023-03-13T10:53:54.315Z,71.25
2023-03-13T10:55:04.004Z,71.37
2023-03-13T10:56:15.442Z,70.24
2023-03-13T10:57:18.182Z,69.57
2023-03-13T10:58:33.421Z,68.96
2023-03-13T10:59:43.401Z,68.59
2023-03-13T11:00:46.876Z,68.20
2023-03-13T11:01:52.009Z,67.53
2023-03-13T11:02:55.425Z,66.67
2023-03-13T11:04:03.886Z,67.62
2023-03-13T11:05:24.716Z,66.90
2023-03-13T11:06:41.498Z,66.32
2023-03-13T11:07:47.472Z,66.75
2023-03-13T11:09:02.529Z,68.05
2023-03-13T11:10:24.061Z,67.39
2023-03-13T11:11:31.759Z,66.54
2023-03-13T11:12:36.862Z,65.86
2023-03-13T11:13:43.022Z,65.80
2023-03-13T11:14:46.340Z,65.66
2023-03-13T11:16:14.126Z,64.30
2023-03-13T11:17:37.358Z,66.77
2023-03-13T11:19:03.529Z,64.09
2023-03-13T11:20:16.558Z,65.32
2023-03-13T11:21:54.453Z,64.70
2023-03-13T11:23:15.084Z,63.47
2023-03-13T11:24:44.397Z,62.44
2023-03-13T11:26:03.296Z,61.89
2023-03-13T11:27:22.539Z,63.17
2023-03-13T11:28:59.933Z,64.21
2023-03-13T11:30:30.617Z,62.97
2023-03-13T11:31:39.887Z,61.94
2023-03-13T11:33:01.112Z,62.57
2023-03-13T11:34:28.111Z,62.49
2023-03-13T11:35:49.493Z,62.57
2023-03-13T11:37:02.673Z,62.69
2023-03-13T11:38:22.221Z,61.57
2023-03-13T11:39:51.235Z,60.89
2023-03-13T11:40:56.973Z,62.13
2023-03-13T11:42:17.787Z,61.42
2023-03-13T11:43:42.027Z,60.79
2023-03-13T11:45:08.501Z,61.24
2023-03-13T11:46:25.714Z,60.42
2023-03-13T11:48:18.666Z,59.96
2023-03-13T11:49:36.017Z,60.03
2023-03-13T11:51:07.946Z,59.38
2023-03-13T11:52:32.375Z,59.88
2023-03-13T11:53:58.497Z,58.55
2023-03-13T11:55:13.417Z,58.54
2023-03-13T11:56:27.563Z,57.89
2023-03-13T11:57:49.400Z,56.38
2023-03-13T11:59:03.220Z,57.19
2023-03-13T12:00:25.189Z,57.89
2023-03-13T12:01:41.988Z,57.81
2023-03-13T12:02:51.899Z,58.01
2023-03-13T12:04:34.258Z,56.75
2023-03-13T12:26:33.553Z,59.80
2023-03-13T12:27:43.340Z,58.13
2023-03-13T12:28:52.155Z,58.30
2023-03-13T12:30:30.510Z,59.17
2023-03-13T12:31:51.046Z,58.91
2023-03-13T12:33:03.570Z,58.87
2023-03-13T12:34:34.001Z,59.80
2023-03-13T12:35:41.105Z,59.06
2023-03-13T12:36:53.426Z,58.83
2023-03-13T12:38:03.076Z,57.84
2023-03-13T12:39:21.141Z,59.11
2023-03-13T12:40:48.076Z,58.46
2023-03-13T12:42:17.740Z,59.54
2023-03-13T12:43:27.332Z,59.01
2023-03-13T12:44:31.982Z,58.13
2023-03-13T12:45:38.811Z,57.97
2023-03-13T12:46:44.418Z,58.04
2023-03-13T12:48:05.932Z,58.02
2023-03-13T12:49:45.943Z,58.25
2023-03-13T12:51:18.321Z,59.29
2023-03-13T12:52:38.659Z,58.56
2023-03-13T12:54:01.826Z,58.94
2023-03-13T12:55:23.075Z,59.05
2023-03-13T12:56:53.741Z,58.78
2023-03-13T12:58:23.741Z,57.50
2023-03-13T12:59:40.673Z,58.76
2023-03-13T13:00:48.180Z,59.02
2023-03-13T13:01:58.688Z,58.30
2023-03-13T13:03:19.915Z,57.74
2023-03-13T13:04:28.371Z,58.19
2023-03-13T13:05:38.067Z,58.33
2023-03-13T13:06:59.417Z,57.74
2023-03-13T13:08:02.640Z,58.00
2023-03-13T13:09:17.610Z,55.90
2023-03-13T13:10:26.401Z,56.43
2023-03-13T13:11:38.239Z,57.29
2023-03-13T13:12:44.102Z,57.83
2023-03-13T13:13:47.153Z,56.80
2023-03-13T13:14:50.386Z,56.98
2023-03-13T13:16:02.372Z,57.78
2023-03-13T13:17:11.161Z,56.07
2023-03-13T13:18:27.108Z,56.77
2023-03-13T13:19:38.943Z,57.13
2023-03-13T13:20:50.163Z,56.95
2023-03-13T13:22:30.659Z,56.96
2023-03-13T13:23:46.498Z,56.04
2023-03-13T13:24:52.269Z,57.10
2023-03-13T13:26:16.243Z,56.62
2023-03-13T13:27:32.042Z,56.80
2023-03-13T13:28:36.584Z,57.31
2023-03-13T13:29:52.408Z,57.72
2023-03-13T13:30:56.781Z,59.06
2023-03-13T13:32:01.732Z,57.97
2023-03-13T13:33:20.365Z,57.77
2023-03-13T13:34:34.532Z,56.93
2023-03-13T13:35:37.585Z,57.31
2023-03-13T13:36:41.863Z,56.60
2023-03-13T13:37:48.984Z,56.68
2023-03-13T13:38:52.566Z,57.78
2023-03-13T13:40:18.238Z,57.12
2023-03-13T13:41:34.055Z,56.67
2023-03-13T13:42:47.059Z,57.40
2023-03-13T13:44:10.845Z,57.59
2023-03-13T13:45:16.634Z,57.99
2023-03-13T13:46:33.759Z,57.50
2023-03-13T13:47:36.895Z,57.79
2023-03-13T13:48:44.617Z,57.63
2023-03-13T13:49:55.979Z,57.04
2023-03-13T13:51:11.531Z,57.67
2023-03-13T13:52:20.346Z,58.81
2023-03-13T13:53:54.294Z,58.88
2023-03-13T13:54:58.111Z,59.00
2023-03-13T13:56:03.592Z,59.52
2023-03-13T13:57:15.612Z,58.80
2023-03-13T13:58:32.821Z,58.48
2023-03-13T13:59:43.650Z,59.31
2023-03-13T14:01:11.401Z,58.02
2023-03-13T14:02:21.571Z,58.59
2023-03-13T14:03:30.688Z,57.90
2023-03-13T14:04:45.035Z,58.03
2023-03-13T14:05:52.126Z,58.53
2023-03-13T14:07:01.340Z,58.64
2023-03-13T14:08:13.579Z,58.70
2023-03-13T14:09:43.093Z,57.97
2023-03-13T14:11:11.152Z,57.75
2023-03-13T14:12:34.396Z,58.50
2023-03-13T14:13:37.447Z,58.79
2023-03-13T14:14:40.131Z,59.69
2023-03-13T14:15:45.574Z,59.32
2023-03-13T14:16:50.803Z,59.52
2023-03-13T14:18:00.606Z,58.72
2023-03-13T14:19:04.154Z,59.77
2023-03-13T14:20:19.471Z,60.42
2023-03-13T14:21:24.425Z,60.10
2023-03-13T14:22:45.671Z,59.62
2023-03-13T14:23:48.499Z,60.05
2023-03-13T14:24:58.687Z,60.28
2023-03-13T14:26:18.063Z,60.15
2023-03-13T14:27:22.161Z,59.62
2023-03-13T14:28:28.718Z,60.63
2023-03-13T14:29:31.595Z,60.49
2023-03-13T14:30:34.724Z,60.52
2023-03-13T14:31:39.432Z,60.33
2023-03-13T14:32:45.311Z,60.55
2023-03-13T14:33:49.095Z,60.90
2023-03-13T14:34:51.958Z,60.59
2023-03-13T14:35:55.621Z,60.66
2023-03-13T14:37:17.128Z,61.25
2023-03-13T14:38:25.495Z,60.58
2023-03-13T14:39:30.924Z,61.65
2023-03-13T14:40:39.443Z,62.10
2023-03-13T14:41:46.676Z,62.08
2023-03-13T14:42:58.530Z,62.69
2023-03-13T14:44:07.143Z,62.17
2023-03-13T14:45:21.270Z,63.03
2023-03-13T14:46:30.782Z,63.71
2023-03-13T14:47:34.330Z,64.50
2023-03-13T14:48:37.597Z,64.52
2023-03-13T14:49:40.544Z,64.12
2023-03-13T14:50:43.447Z,64.31
2023-03-13T14:51:58.713Z,64.36
2023-03-13T14:53:11.355Z,64.57
2023-03-13T14:54:38.164Z,65.03
2023-03-13T14:55:41.294Z,65.55
2023-03-13T14:56:45.338Z,65.79
2023-03-13T14:57:57.736Z,66.16
2023-03-13T14:59:23.481Z,66.27
2023-03-13T15:00:35.166Z,67.69
2023-03-13T15:01:37.956Z,67.32
2023-03-13T15:02:43.159Z,66.79
2023-03-13T15:03:48.842Z,67.48
2023-03-13T15:05:03.746Z,67.02
2023-03-13T15:06:12.629Z,67.90
2023-03-13T15:07:15.456Z,68.66
2023-03-13T15:08:21.664Z,68.82
2023-03-13T15:09:24.726Z,68.76
2023-03-13T15:10:37.222Z,68.24
2023-03-13T15:11:54.767Z,68.49
2023-03-13T15:12:58.413Z,68.85
2023-03-13T15:14:01.676Z,68.81
2023-03-13T15:15:04.652Z,68.91
2023-03-13T15:16:20.402Z,68.11
2023-03-13T15:17:26.190Z,68.02
2023-03-13T15:18:35.051Z,69.04
2023-03-13T15:19:37.828Z,68.61
2023-03-13T15:20:40.549Z,68.51
2023-03-13T15:21:43.843Z,69.37
2023-03-13T15:22:46.647Z,68.86
2023-03-13T15:24:11.357Z,69.19
2023-03-13T15:25:23.445Z,69.20
2023-03-13T15:26:26.994Z,69.31
2023-03-13T15:27:30.266Z,69.64
2023-03-13T15:28:33.135Z,69.95
2023-03-13T15:29:35.894Z,69.62
2023-03-13T15:30:39.990Z,70.29
2023-03-13T15:31:43.074Z,70.32
2023-03-13T15:32:48.199Z,71.05
2023-03-13T15:33:57.468Z,70.93
2023-03-13T15:35:02.016Z,71.52
2023-03-13T15:36:05.617Z,70.77
2023-03-13T15:37:12.524Z,70.27
2023-03-13T15:38:21.195Z,70.63
2023-03-13T15:39:24.890Z,70.39
2023-03-13T15:40:31.091Z,70.75
2023-03-13T15:41:33.943Z,70.89
2023-03-13T15:42:37.115Z,71.16
2023-03-13T15:43:40.189Z,70.32
2023-03-13T15:44:43.005Z,70.66
2023-03-13T15:45:53.315Z,71.25
2023-03-13T15:46:56.452Z,71.30
2023-03-13T15:48:00.919Z,71.00
2023-03-13T15:49:11.306Z,71.37
2023-03-13T15:50:20.076Z,71.58
2023-03-13T15:51:22.799Z,71.37
2023-03-13T15:52:25.918Z,71.03
2023-03-13T15:53:31.417Z,71.43
2023-03-13T15:54:34.466Z,71.02
2023-03-13T15:55:37.312Z,71.48
2023-03-13T15:56:40.297Z,71.42
2023-03-13T15:57:47.231Z,71.71
2023-03-13T15:58:51.852Z,71.66
2023-03-13T15:59:55.034Z,71.75
2023-03-13T16:00:58.100Z,71.55
2023-03-13T16:02:01.107Z,71.62
2023-03-13T16:03:03.967Z,72.34
2023-03-13T16:04:07.169Z,72.44
2023-03-13T16:05:10.655Z,72.51
2023-03-13T16:06:20.701Z,73.08
2023-03-13T16:07:24.551Z,73.14
2023-03-13T16:08:36.167Z,72.71
2023-03-13T16:09:44.278Z,73.51
2023-03-13T16:10:47.219Z,73.78
2023-03-13T16:11:49.938Z,73.80
2023-03-13T16:12:54.079Z,74.27
2023-03-13T16:13:57.596Z,74.51
2023-03-13T16:15:00.414Z,74.46
2023-03-13T16:16:06.178Z,74.66
2023-03-13T16:17:17.215Z,74.61
2023-03-13T16:18:23.008Z,74.74
2023-03-13T16:19:25.813Z,74.84
2023-03-13T16:20:29.343Z,74.89
2023-03-13T16:21:34.724Z,74.70
2023-03-13T16:22:37.547Z,74.37
2023-03-13T16:23:40.640Z,74.62
2023-03-13T16:24:43.402Z,74.87
2023-03-13T16:25:46.607Z,75.06
2023-03-13T16:26:49.445Z,75.01
2023-03-13T16:27:53.686Z,74.65
2023-03-13T16:28:57.814Z,74.77
2023-03-13T16:30:07.126Z,74.86
2023-03-13T16:31:18.406Z,74.94
2023-03-13T16:32:25.123Z,74.98
2023-03-13T16:33:27.917Z,75.19
2023-03-13T16:34:30.985Z,75.68
2023-03-13T16:35:34.457Z,75.54
2023-03-13T16:36:37.417Z,75.48
2023-03-13T16:37:40.354Z,75.59
2023-03-13T16:38:45.235Z,75.53
2023-03-13T16:39:49.638Z,75.65
2023-03-13T16:40:52.652Z,75.85
2023-03-13T16:41:55.315Z,75.89
2023-03-13T16:42:58.447Z,76.47
2023-03-13T16:44:02.733Z,76.67
2023-03-13T16:45:06.648Z,76.82
2023-03-13T16:46:13.448Z,76.47
2023-03-13T16:47:28.922Z,76.65
2023-03-13T16:48:32.162Z,76.85
2023-03-13T16:49:35.134Z,76.95
2023-03-13T16:50:38.661Z,76.93
2023-03-13T16:51:41.802Z,76.86
2023-03-13T16:52:45.189Z,77.45
2023-03-13T16:53:51.940Z,77.46
2023-03-13T16:54:54.681Z,77.70
2023-03-13T16:55:57.765Z,77.23
2023-03-13T16:57:02.294Z,77.41
2023-03-13T16:58:05.452Z,77.51
2023-03-13T16:59:18.171Z,77.93
2023-03-13T17:00:23.660Z,77.86
2023-03-13T17:01:30.205Z,77.84
2023-03-13T17:02:37.897Z,78.08
2023-03-13T17:03:40.777Z,78.06
2023-03-13T17:04:45.264Z,78.04
2023-03-13T17:05:48.485Z,78.54
2023-03-13T17:06:52.987Z,78.92
2023-03-13T17:07:56.446Z,79.12
2023-03-13T17:08:59.300Z,79.28
2023-03-13T17:10:02.064Z,79.49
2023-03-13T17:11:05.577Z,79.56
2023-03-13T17:12:09.167Z,79.46
2023-03-13T17:13:12.203Z,79.47
2023-03-13T17:14:15.024Z,79.40
2023-03-13T17:15:20.215Z,79.34
2023-03-13T17:16:29.931Z,79.32
2023-03-13T17:17:33.717Z,79.21
2023-03-13T17:18:44.771Z,79.18
2023-03-13T17:19:47.953Z,78.59
2023-03-13T17:20:51.299Z,78.56
2023-03-13T17:21:54.242Z,78.79
2023-03-13T17:22:57.761Z,78.89
2023-03-13T17:24:00.917Z,79.23
2023-03-13T17:25:03.842Z,79.64
2023-03-13T17:26:33.723Z,79.79
2023-03-13T17:27:37.418Z,80.28
2023-03-13T17:28:44.295Z,80.67
2023-03-13T17:29:47.277Z,80.88
2023-03-13T17:30:50.865Z,80.83
2023-03-13T17:31:54.353Z,80.82
2023-03-13T17:32:59.178Z,80.83
2023-03-13T17:34:03.864Z,80.98
2023-03-13T17:35:07.778Z,80.55
2023-03-13T17:36:21.754Z,80.47
2023-03-13T17:37:24.998Z,80.53
2023-03-13T17:38:28.230Z,80.27
2023-03-13T17:39:32.098Z,80.17
2023-03-13T17:40:37.394Z,80.05
2023-03-13T17:41:40.602Z,79.46
2023-03-13T17:42:44.902Z,79.69
2023-03-13T17:43:48.493Z,79.11
2023-03-13T17:44:51.637Z,78.90
2023-03-13T17:45:55.692Z,78.67
2023-03-13T17:46:58.883Z,78.67
2023-03-13T17:48:01.696Z,78.64
2023-03-13T17:49:05.635Z,78.78
2023-03-13T17:50:24.781Z,78.22
2023-03-13T17:51:30.571Z,78.02
2023-03-13T17:52:34.193Z,78.04
2023-03-13T17:53:37.508Z,77.83
2023-03-13T17:54:40.808Z,78.05
2023-03-13T17:55:43.922Z,78.10
2023-03-13T17:56:47.034Z,77.69
2023-03-13T17:57:50.295Z,78.01
2023-03-13T17:58:57.866Z,77.98
2023-03-13T18:00:00.654Z,78.14
2023-03-13T18:01:05.078Z,77.68
2023-03-13T18:02:13.641Z,77.60
2023-03-13T18:03:18.557Z,77.68
2023-03-13T18:04:23.176Z,77.93
2023-03-13T18:05:28.340Z,77.86
2023-03-13T18:06:43.068Z,77.69
2023-03-13T18:07:48.242Z,77.28
2023-03-13T18:08:55.571Z,77.47
2023-03-13T18:09:59.102Z,77.59
2023-03-13T18:11:43.236Z,77.75
2023-03-13T18:12:49.784Z,77.66
2023-03-13T18:13:53.824Z,77.72
2023-03-13T18:14:57.318Z,77.75
2023-03-13T18:16:02.352Z,77.56
2023-03-13T18:17:15.805Z,77.58
2023-03-13T18:18:21.051Z,78.03
2023-03-13T18:19:26.650Z,78.32
2023-03-13T18:20:33.064Z,78.81
2023-03-13T18:21:37.745Z,78.81
2023-03-13T18:22:44.588Z,79.40
2023-03-13T18:23:49.815Z,79.48
2023-03-13T18:24:55.135Z,79.78
2023-03-13T18:25:59.673Z,80.10
2023-03-13T18:27:04.701Z,80.12
2023-03-13T18:28:13.058Z,80.65
2023-03-13T18:29:20.679Z,80.63
2023-03-13T18:30:25.397Z,80.82
2023-03-13T18:31:36.423Z,80.70
2023-03-13T18:32:40.250Z,80.71
2023-03-13T18:33:44.762Z,81.05
2023-03-13T18:34:53.183Z,80.92
2023-03-13T18:35:57.467Z,80.83
2023-03-13T18:37:05.347Z,81.01
2023-03-13T18:38:14.492Z,81.08
2023-03-13T18:39:20.344Z,81.06
2023-03-13T18:40:28.358Z,81.57
2023-03-13T18:41:33.721Z,81.40
2023-03-13T18:42:37.135Z,81.49
2023-03-13T18:43:42.259Z,81.63
2023-03-13T18:44:48.833Z,82.07
2023-03-13T18:45:53.747Z,81.96
2023-03-13T18:46:57.633Z,81.83
2023-03-13T18:48:01.267Z,81.81
2023-03-13T18:49:10.721Z,81.68
2023-03-13T18:50:31.225Z,81.98
2023-03-13T18:51:35.775Z,81.81
2023-03-13T18:52:39.469Z,81.92
2023-03-13T18:53:44.335Z,82.08
2023-03-13T18:54:48.125Z,82.10
2023-03-13T18:55:54.812Z,82.20
2023-03-13T18:56:59.653Z,82.54
2023-03-13T18:58:04.748Z,82.79
2023-03-13T18:59:18.145Z,82.91
2023-03-13T19:00:26.202Z,82.89
2023-03-13T19:01:31.983Z,82.93
2023-03-13T19:02:42.088Z,83.03
2023-03-13T19:03:47.800Z,83.12
2023-03-13T19:04:53.471Z,83.17
2023-03-13T19:05:59.000Z,83.35
2023-03-13T19:07:03.461Z,83.48
2023-03-13T19:08:10.750Z,83.63
2023-03-13T19:09:42.358Z,83.63
2023-03-13T19:10:48.038Z,83.52
2023-03-13T19:11:52.793Z,83.61
2023-03-13T19:12:57.603Z,83.66
2023-03-13T19:14:02.224Z,83.83
2023-03-13T19:15:06.971Z,83.74
2023-03-13T19:16:16.468Z,83.94
2023-03-13T19:17:25.182Z,84.02
2023-03-13T19:18:31.828Z,83.77
2023-03-13T19:19:37.542Z,83.72
2023-03-13T19:20:41.499Z,83.97
2023-03-13T19:21:45.052Z,84.08
2023-03-13T19:22:48.601Z,84.20
2023-03-13T19:23:54.044Z,84.25
2023-03-13T19:24:58.460Z,84.40
2023-03-13T19:26:02.053Z,84.43
2023-03-13T19:27:06.527Z,84.35
2023-03-13T19:28:11.218Z,84.54
2023-03-13T19:29:18.649Z,84.86
2023-03-13T19:30:26.276Z,84.98
2023-03-13T19:31:30.242Z,85.30
2023-03-13T19:32:36.296Z,85.49
2023-03-13T19:33:40.890Z,85.63
2023-03-13T19:34:44.818Z,85.76
2023-03-13T19:35:51.223Z,85.91
2023-03-13T19:36:55.712Z,85.88
2023-03-13T19:38:01.597Z,86.01
2023-03-13T19:39:12.818Z,86.01
2023-03-13T19:40:26.420Z,85.78
2023-03-13T19:41:32.729Z,85.83
2023-03-13T19:42:36.500Z,85.77
2023-03-13T19:43:44.561Z,85.83
2023-03-13T19:44:48.714Z,86.06
2023-03-13T19:45:53.032Z,86.23
2023-03-13T19:46:59.308Z,86.33
2023-03-13T19:48:04.410Z,86.42
2023-03-13T19:49:12.555Z,86.72
2023-03-13T19:50:25.360Z,86.34
2023-03-13T19:51:31.222Z,86.16
2023-03-13T19:52:36.463Z,85.96
2023-03-13T19:53:43.540Z,85.49
2023-03-13T19:54:47.799Z,85.48
2023-03-13T19:55:52.043Z,85.29
2023-03-13T19:56:56.856Z,84.76
2023-03-13T19:58:07.680Z,84.50
2023-03-13T19:59:24.972Z,84.46
2023-03-13T20:00:30.648Z,84.44
2023-03-13T20:01:35.093Z,84.29
2023-03-13T20:02:38.946Z,84.66
2023-03-13T20:03:43.836Z,84.51
2023-03-13T20:04:50.684Z,84.50
2023-03-13T20:06:00.644Z,84.17
2023-03-13T20:07:05.352Z,84.45
2023-03-13T20:08:10.705Z,84.43
2023-03-13T20:09:17.652Z,84.63
2023-03-13T20:10:23.040Z,84.70
2023-03-13T20:11:28.155Z,84.39
2023-03-13T20:12:33.067Z,84.64
2023-03-13T20:13:36.801Z,84.31
2023-03-13T20:14:42.491Z,84.36
2023-03-13T20:15:46.826Z,84.22
2023-03-13T20:16:51.455Z,84.18
2023-03-13T20:17:59.009Z,84.29
2023-03-13T20:19:04.790Z,84.72
2023-03-13T20:20:11.312Z,85.12
2023-03-13T20:21:16.545Z,85.75
2023-03-13T20:22:20.571Z,86.13
2023-03-13T20:23:26.246Z,86.38
2023-03-13T20:24:34.333Z,86.77
2023-03-13T20:25:38.455Z,87.19
2023-03-13T20:26:42.749Z,87.57
2023-03-13T20:27:47.136Z,87.93
2023-03-13T20:28:53.812Z,88.19
2023-03-13T20:29:57.606Z,88.40
2023-03-13T20:31:02.959Z,88.86
2023-03-13T20:32:07.713Z,89.24
2023-03-13T20:33:12.835Z,89.19
2023-03-13T20:34:16.182Z,89.09
2023-03-13T20:35:20.926Z,89.15
2023-03-13T20:36:25.782Z,89.19
2023-03-13T20:37:33.068Z,89.23
2023-03-13T20:38:38.508Z,89.19
2023-03-13T20:40:05.069Z,89.25
2023-03-13T20:41:11.448Z,89.33
2023-03-13T20:42:17.185Z,89.46
2023-03-13T20:43:21.741Z,89.54
2023-03-13T20:44:26.970Z,89.65
2023-03-13T20:45:36.484Z,89.69
2023-03-13T20:46:40.487Z,89.95
2023-03-13T20:47:44.835Z,89.58
2023-03-13T20:48:50.009Z,89.51
2023-03-13T20:49:54.299Z,90.18
2023-03-13T20:51:00.853Z,91.16
2023-03-13T20:52:07.088Z,91.15
2023-03-13T20:53:11.902Z,91.31
2023-03-13T20:54:15.395Z,91.41
2023-03-13T20:55:19.174Z,91.53
2023-03-13T20:56:23.955Z,91.75
2023-03-13T20:57:29.940Z,92.44
2023-03-13T20:58:33.883Z,91.94
2023-03-13T20:59:38.224Z,91.02
2023-03-13T21:00:43.744Z,90.69
2023-03-13T21:01:49.825Z,90.83
2023-03-13T21:02:54.516Z,90.80
2023-03-13T21:03:58.178Z,91.44
2023-03-13T21:05:03.926Z,91.71
2023-03-13T21:06:16.664Z,92.82
2023-03-13T21:07:21.946Z,92.54
2023-03-13T21:08:26.431Z,91.50
2023-03-13T21:09:30.166Z,90.57
2023-03-13T21:10:37.069Z,90.28
2023-03-13T21:11:41.740Z,90.00
2023-03-13T21:12:48.970Z,89.86
2023-03-13T21:13:52.211Z,89.81
2023-03-13T21:14:55.752Z,89.96
2023-03-13T21:16:02.556Z,90.02
2023-03-13T21:17:06.240Z,89.83
2023-03-13T21:18:10.564Z,89.55
2023-03-13T21:19:14.487Z,89.52
2023-03-13T21:20:17.985Z,89.32
2023-03-13T21:21:22.938Z,89.47
2023-03-13T21:22:28.669Z,89.83
2023-03-13T21:23:32.290Z,90.10
2023-03-13T21:24:35.053Z,90.10
2023-03-13T21:25:37.746Z,90.11
2023-03-13T21:26:41.256Z,89.98
2023-03-13T21:27:44.553Z,89.96
2023-03-13T21:28:51.469Z,89.59
2023-03-13T21:29:54.480Z,89.47
2023-03-13T21:30:58.368Z,89.78
2023-03-13T21:32:02.082Z,89.64
2023-03-13T21:33:05.037Z,90.03
2023-03-13T21:34:10.653Z,89.68
2023-03-13T21:35:14.090Z,90.23
2023-03-13T21:36:21.290Z,90.27
2023-03-13T21:37:25.167Z,90.64
2023-03-13T21:38:27.955Z,91.58
2023-03-13T21:39:31.887Z,91.84
2023-03-13T21:40:34.727Z,91.66
2023-03-13T21:41:37.743Z,92.19
2023-03-13T21:42:40.660Z,91.61
2023-03-13T21:43:43.859Z,90.95
2023-03-13T21:44:48.378Z,90.75
2023-03-13T21:45:51.103Z,90.92
2023-03-13T21:46:53.886Z,91.03
2023-03-13T21:47:56.922Z,91.76
2023-03-13T21:49:01.039Z,91.98
2023-03-13T21:50:06.992Z,92.31
2023-03-13T21:51:11.685Z,92.23
2023-03-13T21:52:20.316Z,92.46
2023-03-13T21:53:25.835Z,92.42
2023-03-13T21:54:29.054Z,92.24
2023-03-13T21:55:35.404Z,92.39
2023-03-13T21:56:38.068Z,92.39
2023-03-13T21:57:41.187Z,93.18
2023-03-13T21:58:48.382Z,92.84
2023-03-13T21:59:51.185Z,92.41
2023-03-13T22:00:55.941Z,92.43
2023-03-13T22:01:58.995Z,92.42
2023-03-13T22:03:01.741Z,93.26
2023-03-13T22:04:05.067Z,93.71
2023-03-13T22:05:09.252Z,94.51
2023-03-13T22:06:18.933Z,93.74
2023-03-13T22:07:22.010Z,93.94
2023-03-13T22:08:25.816Z,94.19
2023-03-13T22:09:28.570Z,94.46
2023-03-13T22:10:31.341Z,94.31
2023-03-13T22:11:34.297Z,95.00
2023-03-13T22:12:38.991Z,95.03
2023-03-13T22:13:46.952Z,95.08
2023-03-13T22:14:51.458Z,95.19
2023-03-13T22:16:01.323Z,95.91
2023-03-13T22:17:04.232Z,96.39
2023-03-13T22:18:08.623Z,96.23
2023-03-13T22:19:14.263Z,95.61
2023-03-13T22:20:17.082Z,95.22
2023-03-13T22:21:20.364Z,95.24
2023-03-13T22:22:23.308Z,95.07
2023-03-13T22:23:26.506Z,95.36
2023-03-13T22:24:29.141Z,95.33
2023-03-13T22:25:31.820Z,95.43
2023-03-13T22:26:34.697Z,95.75
2023-03-13T22:27:38.266Z,95.84
2023-03-13T22:28:41.726Z,95.71
2023-03-13T22:29:44.562Z,95.18
2023-03-13T22:30:47.700Z,96.24
2023-03-13T22:31:50.539Z,96.50
2023-03-13T22:32:53.419Z,96.40
2023-03-13T22:33:56.476Z,96.37
2023-03-13T22:34:59.204Z,96.44
2023-03-13T22:36:02.687Z,96.13
2023-03-13T22:37:05.395Z,95.99
2023-03-13T22:38:08.545Z,95.19
2023-03-13T22:39:11.750Z,94.26
2023-03-13T22:40:14.697Z,94.11
2023-03-13T22:41:18.347Z,94.66
2023-03-13T22:42:22.084Z,95.82
2023-03-13T22:43:25.000Z,95.52
2023-03-13T22:44:28.085Z,93.33
2023-03-13T22:45:32.255Z,92.36
2023-03-13T22:46:35.201Z,91.38
2023-03-13T22:47:38.242Z,90.76
2023-03-13T22:48:41.348Z,90.68
2023-03-13T22:49:44.610Z,90.38
2023-03-13T22:50:47.575Z,90.02
2023-03-13T22:51:50.473Z,90.01
2023-03-13T22:52:53.489Z,89.86
2023-03-13T22:53:56.378Z,89.59
2023-03-13T22:54:59.596Z,89.59
2023-03-13T22:56:02.254Z,89.51
2023-03-13T22:57:05.118Z,89.49
2023-03-13T22:58:07.777Z,89.54
2023-03-13T22:59:11.120Z,89.39
2023-03-13T23:00:14.950Z,89.52
2023-03-13T23:01:18.625Z,90.18
2023-03-13T23:02:22.348Z,90.90
2023-03-13T23:03:25.148Z,91.35
2023-03-13T23:04:27.894Z,91.02
2023-03-13T23:05:30.971Z,91.11
2023-03-13T23:06:33.700Z,91.36
2023-03-13T23:07:40.942Z,91.77
2023-03-13T23:08:46.376Z,91.87
2023-03-13T23:09:49.223Z,91.43
2023-03-13T23:10:52.244Z,91.56
2023-03-13T23:11:54.985Z,92.07
2023-03-13T23:12:57.752Z,91.91
2023-03-13T23:14:01.241Z,91.63
2023-03-13T23:15:05.336Z,92.55
2023-03-13T23:16:10.669Z,92.37
2023-03-13T23:17:13.627Z,92.91
2023-03-13T23:18:16.947Z,93.07
2023-03-13T23:19:20.025Z,92.58
2023-03-13T23:20:23.107Z,92.96
2023-03-13T23:21:26.219Z,93.13
2023-03-13T23:22:33.041Z,92.74
2023-03-13T23:23:35.976Z,93.01
2023-03-13T23:24:39.018Z,93.19
2023-03-13T23:25:41.847Z,93.51
2023-03-13T23:26:45.254Z,93.31
2023-03-13T23:27:48.147Z,94.14
2023-03-13T23:28:53.740Z,94.35
2023-03-13T23:29:56.852Z,93.89
2023-03-13T23:30:59.754Z,93.39
2023-03-13T23:32:02.936Z,93.36
2023-03-13T23:33:05.997Z,93.16
2023-03-13T23:34:08.836Z,93.40
2023-03-13T23:35:12.896Z,93.51
2023-03-13T23:36:18.671Z,93.31
2023-03-13T23:37:22.022Z,93.33
2023-03-13T23:38:26.382Z,93.41
2023-03-13T23:39:29.446Z,93.36
2023-03-13T23:40:32.904Z,93.23
2023-03-13T23:41:36.883Z,93.10
2023-03-13T23:42:40.014Z,92.83
2023-03-13T23:43:42.935Z,92.67
2023-03-13T23:44:45.668Z,92.69
2023-03-13T23:45:48.439Z,92.98
2023-03-13T23:46:51.301Z,92.71
2023-03-13T23:47:55.108Z,92.63
2023-03-13T23:48:59.198Z,92.54
2023-03-13T23:50:02.200Z,92.42
2023-03-13T23:51:06.471Z,92.16
2023-03-13T23:52:09.230Z,92.02
2023-03-13T23:53:12.439Z,91.95
2023-03-13T23:54:15.312Z,92.07
2023-03-13T23:55:18.106Z,91.67